createdAt,value
2019-06-26T00:00:47.930Z,8.65
2019-06-26T00:03:18.559Z,9.25
2019-06-26T00:05:49.016Z,9.78
2019-06-26T00:08:19.440Z,9.40
2019-06-26T00:10:49.958Z,11.10
2019-06-26T00:13:26.131Z,11.80
2019-06-26T00:15:52.703Z,12.00
2019-06-26T00:18:23.292Z,13.00
2019-06-26T00:20:53.924Z,12.28
2019-06-26T00:23:24.661Z,12.85
2019-06-26T00:25:55.527Z,14.60
2019-06-26T00:28:26.028Z,13.58
2019-06-26T00:30:56.536Z,13.30
2019-06-26T00:33:26.941Z,13.93
2019-06-26T00:35:57.524Z,12.85
2019-06-26T00:38:27.927Z,14.38
2019-06-26T00:40:58.386Z,13.48
2019-06-26T00:43:41.588Z,14.05
2019-06-26T00:46:00.903Z,13.80
2019-06-26T00:48:31.529Z,13.83
2019-06-26T00:51:02.232Z,12.93
2019-06-26T00:53:32.617Z,12.35
2019-06-26T00:56:03.018Z,11.40
2019-06-26T00:58:33.567Z,12.00
2019-06-26T01:01:03.983Z,11.25
2019-06-26T01:03:34.443Z,10.48
2019-06-26T01:06:04.999Z,10.38
2019-06-26T01:08:35.384Z,11.33
2019-06-26T01:11:05.921Z,11.20
2019-06-26T01:13:36.342Z,10.80
2019-06-26T01:16:06.739Z,9.95
2019-06-26T01:18:37.145Z,10.00
2019-06-26T01:21:07.628Z,9.68
2019-06-26T01:23:38.467Z,10.20
2019-06-26T01:26:09.157Z,9.60
2019-06-26T01:28:39.694Z,8.78
2019-06-26T01:31:10.085Z,8.23
2019-06-26T01:33:40.471Z,8.75
2019-06-26T01:36:12.338Z,8.83
2019-06-26T01:38:43.749Z,8.73
2019-06-26T01:41:14.652Z,8.68
2019-06-26T01:43:45.210Z,8.10
2019-06-26T01:46:15.626Z,8.48
2019-06-26T01:48:45.968Z,9.05
2019-06-26T01:51:16.478Z,8.60
2019-06-26T01:53:46.863Z,8.60
2019-06-26T01:56:17.277Z,8.35
2019-06-26T01:58:47.631Z,7.40
2019-06-26T02:01:18.044Z,7.78
2019-06-26T02:03:48.495Z,7.83
2019-06-26T02:06:18.887Z,7.62
2019-06-26T02:08:49.265Z,8.13
2019-06-26T02:11:19.762Z,8.03
2019-06-26T02:13:50.139Z,7.92
2019-06-26T02:16:20.609Z,7.92
2019-06-26T02:18:52.588Z,8.15
2019-06-26T02:21:23.951Z,8.15
2019-06-26T02:23:54.540Z,8.25
2019-06-26T02:26:25.735Z,7.67
2019-06-26T02:28:56.451Z,7.60
2019-06-26T02:31:26.912Z,7.55
2019-06-26T02:33:57.343Z,7.70
2019-06-26T02:36:29.457Z,7.37
2019-06-26T02:38:59.935Z,7.97
2019-06-26T02:41:30.331Z,8.28
2019-06-26T02:44:00.910Z,8.38
2019-06-26T02:46:31.400Z,9.08
2019-06-26T02:49:01.800Z,8.48
2019-06-26T02:51:32.256Z,8.53
2019-06-26T02:54:02.651Z,8.48
2019-06-26T02:56:33.128Z,7.87
2019-06-26T02:59:03.578Z,7.75
2019-06-26T03:01:33.991Z,8.45
2019-06-26T03:04:04.602Z,7.50
2019-06-26T03:06:35.035Z,7.75
2019-06-26T03:09:07.385Z,7.97
2019-06-26T03:11:37.793Z,7.62
2019-06-26T03:14:08.275Z,7.70
2019-06-26T03:16:39.162Z,8.60
2019-06-26T03:19:09.602Z,8.65
2019-06-26T03:21:39.986Z,8.33
2019-06-26T03:24:10.506Z,8.63
2019-06-26T03:26:40.990Z,8.95
2019-06-26T03:29:11.416Z,8.48
2019-06-26T03:31:41.841Z,8.45
2019-06-26T03:34:12.293Z,7.55
2019-06-26T03:36:42.954Z,7.80
2019-06-26T03:39:13.328Z,7.95
2019-06-26T03:41:43.774Z,8.33
2019-06-26T03:44:14.227Z,8.30
2019-06-26T03:46:44.610Z,8.93
2019-06-26T03:49:15.077Z,8.53
2019-06-26T03:51:45.561Z,8.93
2019-06-26T03:54:15.995Z,9.43
2019-06-26T03:56:46.507Z,8.98
2019-06-26T03:59:17.013Z,9.30
2019-06-26T04:01:47.436Z,8.70
2019-06-26T04:04:17.947Z,9.38
2019-06-26T04:06:48.420Z,9.03
2019-06-26T04:09:18.968Z,8.75
2019-06-26T04:11:49.416Z,8.80
2019-06-26T04:14:20.006Z,8.50
2019-06-26T04:16:50.421Z,9.80
2019-06-26T04:19:20.803Z,9.20
2019-06-26T04:21:51.296Z,8.93
2019-06-26T04:24:21.665Z,9.38
2019-06-26T04:26:52.268Z,8.80
2019-06-26T04:29:22.915Z,10.00
2019-06-26T04:31:53.349Z,8.80
2019-06-26T04:34:23.875Z,9.35
2019-06-26T04:36:55.958Z,10.23
2019-06-26T04:39:26.444Z,8.80
2019-06-26T04:41:56.863Z,9.30
2019-06-26T04:44:27.304Z,10.03
2019-06-26T04:46:57.741Z,9.35
2019-06-26T04:49:28.123Z,9.90
2019-06-26T04:51:58.624Z,9.60
2019-06-26T04:54:29.208Z,9.98
2019-06-26T04:57:00.128Z,10.03
2019-06-26T04:59:30.584Z,9.50
2019-06-26T05:02:01.009Z,10.55
2019-06-26T05:04:31.470Z,9.95
2019-06-26T05:07:01.974Z,10.82
2019-06-26T05:09:32.479Z,10.03
2019-06-26T05:12:03.021Z,10.28
2019-06-26T05:14:33.594Z,10.23
2019-06-26T05:17:04.043Z,10.23
2019-06-26T05:19:34.443Z,10.45
2019-06-26T05:22:05.101Z,10.90
2019-06-26T05:24:35.545Z,11.05
2019-06-26T05:27:05.972Z,11.12
2019-06-26T05:29:36.329Z,10.98
2019-06-26T05:32:06.761Z,11.28
2019-06-26T05:34:37.567Z,11.48
2019-06-26T05:37:08.069Z,11.00
2019-06-26T05:39:39.903Z,11.15
2019-06-26T05:42:10.552Z,10.60
2019-06-26T05:44:41.026Z,10.78
2019-06-26T05:47:11.578Z,11.18
2019-06-26T05:49:42.125Z,11.25
2019-06-26T05:52:16.496Z,12.13
2019-06-26T05:54:45.323Z,12.15
2019-06-26T05:57:16.169Z,12.68
2019-06-26T05:59:46.993Z,12.33
2019-06-26T06:02:17.800Z,12.50
2019-06-26T06:04:48.569Z,12.07
2019-06-26T06:07:19.189Z,11.93
2019-06-26T06:09:49.915Z,12.30
2019-06-26T06:12:20.650Z,12.60
2019-06-26T06:14:51.186Z,12.33
2019-06-26T06:17:21.810Z,11.93
2019-06-26T06:19:52.570Z,12.50
2019-06-26T06:22:23.220Z,12.55
2019-06-26T06:24:54.086Z,11.68
2019-06-26T06:27:24.928Z,14.10
2019-06-26T06:29:57.075Z,13.15
2019-06-26T06:32:27.756Z,13.05
2019-06-26T06:34:58.403Z,12.43
2019-06-26T06:37:29.206Z,12.70
2019-06-26T06:39:59.889Z,14.28
2019-06-26T06:42:30.532Z,13.28
2019-06-26T06:45:01.026Z,13.72
2019-06-26T06:47:31.543Z,12.95
2019-06-26T06:50:02.101Z,14.20
2019-06-26T06:52:32.771Z,12.63
2019-06-26T06:55:04.312Z,12.98
2019-06-26T06:57:34.888Z,13.72
2019-06-26T07:00:07.448Z,13.25
2019-06-26T07:02:38.077Z,13.20
2019-06-26T07:05:10.036Z,13.15
2019-06-26T07:07:40.798Z,13.32
2019-06-26T07:10:11.467Z,13.50
2019-06-26T07:12:42.083Z,13.93
2019-06-26T07:15:13.621Z,13.35
2019-06-26T07:17:44.334Z,13.83
2019-06-26T07:20:14.862Z,13.62
2019-06-26T07:22:45.377Z,13.48
2019-06-26T07:25:16.015Z,13.83
2019-06-26T07:27:46.554Z,12.88
2019-06-26T07:30:17.174Z,13.13
2019-06-26T07:32:47.887Z,13.78
2019-06-26T07:35:18.385Z,13.15
2019-06-26T07:37:49.306Z,13.22
2019-06-26T07:40:19.937Z,14.10
2019-06-26T07:42:50.498Z,12.45
2019-06-26T07:45:23.982Z,14.03
2019-06-26T07:47:53.468Z,13.58
2019-06-26T07:50:24.096Z,13.13
2019-06-26T07:52:54.577Z,13.83
2019-06-26T07:55:25.156Z,14.00
2019-06-26T07:57:55.759Z,13.58
2019-06-26T08:00:26.297Z,13.50
2019-06-26T08:02:56.773Z,13.78
2019-06-26T08:05:27.253Z,13.70
2019-06-26T08:07:57.783Z,15.03
2019-06-26T08:10:28.282Z,13.93
2019-06-26T08:12:58.958Z,12.82
2019-06-26T08:15:29.495Z,13.85
2019-06-26T08:18:01.529Z,13.35
2019-06-26T08:20:32.188Z,13.98
2019-06-26T08:23:03.612Z,13.30
2019-06-26T08:25:34.243Z,13.30
2019-06-26T08:28:04.869Z,13.65
2019-06-26T08:30:35.506Z,14.20
2019-06-26T08:33:06.107Z,14.23
2019-06-26T08:35:36.647Z,14.10
2019-06-26T08:38:11.347Z,13.75
2019-06-26T08:40:39.950Z,13.30
2019-06-26T08:43:10.482Z,14.00
2019-06-26T08:45:40.945Z,14.00
2019-06-26T08:48:22.718Z,13.72
2019-06-26T08:50:43.783Z,13.55
2019-06-26T08:53:14.304Z,13.85
2019-06-26T08:55:44.773Z,13.43
2019-06-26T08:58:15.275Z,13.72
2019-06-26T09:00:46.622Z,14.28
2019-06-26T09:03:17.347Z,14.68
2019-06-26T09:05:48.831Z,13.38
2019-06-26T09:08:19.459Z,13.48
2019-06-26T09:10:50.482Z,13.95
2019-06-26T09:13:21.045Z,13.53
2019-06-26T09:15:51.441Z,13.35
2019-06-26T09:18:34.961Z,13.62
2019-06-26T09:20:54.206Z,13.75
2019-06-26T09:23:24.773Z,13.62
2019-06-26T09:25:55.555Z,13.60
2019-06-26T09:28:26.103Z,12.47
2019-06-26T09:30:56.752Z,12.88
2019-06-26T09:33:27.335Z,12.78
2019-06-26T09:35:57.970Z,12.68
2019-06-26T09:38:29.171Z,12.90
2019-06-26T09:41:00.295Z,12.37
2019-06-26T09:43:30.940Z,12.55
2019-06-26T09:46:01.408Z,12.25
2019-06-26T09:48:32.017Z,12.85
2019-06-26T09:51:02.577Z,12.20
2019-06-26T09:53:46.598Z,12.15
2019-06-26T09:56:05.275Z,12.18
2019-06-26T09:58:35.687Z,11.43
2019-06-26T10:01:06.215Z,12.43
2019-06-26T10:03:36.681Z,12.50
2019-06-26T10:06:07.236Z,12.47
2019-06-26T10:08:37.620Z,12.98
2019-06-26T10:11:08.034Z,12.20
2019-06-26T10:13:38.563Z,13.38
2019-06-26T10:16:09.025Z,13.88
2019-06-26T10:18:39.506Z,12.45
2019-06-26T10:21:09.989Z,13.38
2019-06-26T10:23:40.405Z,12.98
2019-06-26T10:26:10.942Z,13.30
2019-06-26T10:28:41.341Z,12.93
2019-06-26T10:31:11.783Z,12.53
2019-06-26T10:33:42.357Z,13.48
2019-06-26T10:36:13.252Z,12.70
2019-06-26T10:38:43.892Z,12.65
2019-06-26T10:41:14.398Z,13.05
2019-06-26T10:43:44.916Z,12.50
2019-06-26T10:46:15.431Z,12.95
2019-06-26T10:48:45.923Z,12.68
2019-06-26T10:51:16.413Z,12.75
2019-06-26T10:53:46.810Z,12.68
2019-06-26T10:56:17.427Z,13.20
2019-06-26T10:58:47.924Z,13.35
2019-06-26T11:01:18.477Z,13.32
2019-06-26T11:03:48.932Z,13.05
2019-06-26T11:06:19.379Z,12.45
2019-06-26T11:08:50.936Z,14.23
2019-06-26T11:11:21.374Z,12.95
2019-06-26T11:13:51.822Z,12.90
2019-06-26T11:16:22.259Z,14.13
2019-06-26T11:18:53.049Z,13.60
2019-06-26T11:21:23.499Z,12.63
2019-06-26T11:23:54.157Z,14.07
2019-06-26T11:26:24.564Z,13.45
2019-06-26T11:28:55.072Z,13.50
2019-06-26T11:31:25.554Z,13.22
2019-06-26T11:33:56.235Z,12.45
2019-06-26T11:36:26.723Z,13.48
2019-06-26T11:38:58.153Z,13.93
2019-06-26T11:41:32.293Z,14.10
2019-06-26T11:44:03.493Z,14.55
2019-06-26T11:46:37.049Z,14.78
2019-06-26T11:49:10.785Z,13.57
2019-06-26T11:51:59.361Z,12.63
2019-06-26T11:54:37.546Z,13.25
2019-06-26T11:57:19.008Z,12.82
2019-06-26T11:59:50.548Z,13.32
2019-06-26T12:02:25.538Z,12.43
2019-06-26T12:04:56.742Z,12.78
2019-06-26T12:07:29.544Z,13.68
2019-06-26T12:10:12.757Z,12.73
2019-06-26T12:12:45.393Z,12.93
2019-06-26T12:15:18.770Z,12.37
2019-06-26T12:17:51.569Z,11.80
2019-06-26T12:20:32.261Z,11.48
2019-06-26T12:23:08.311Z,12.13
2019-06-26T12:25:44.106Z,11.78
2019-06-26T12:28:37.808Z,11.70
2019-06-26T12:31:12.161Z,12.35
2019-06-26T12:33:46.883Z,11.73
2019-06-26T12:36:23.922Z,11.95
2019-06-26T12:38:55.466Z,12.20
2019-06-26T12:41:40.016Z,12.27
2019-06-26T12:47:34.212Z,11.73
2019-06-26T12:50:35.783Z,10.90
2019-06-26T12:56:39.027Z,11.88
2019-06-26T12:59:16.581Z,12.13
2019-06-26T13:01:48.383Z,11.48
2019-06-26T13:04:38.268Z,11.05
2019-06-26T13:07:18.323Z,11.05
2019-06-26T13:09:49.717Z,11.00
2019-06-26T13:12:27.053Z,11.75
2019-06-26T13:15:10.857Z,11.43
2019-06-26T13:18:20.768Z,9.75
2019-06-26T13:20:55.114Z,10.13
2019-06-26T13:23:32.314Z,10.93
2019-06-26T13:26:04.007Z,10.40
2019-06-26T13:28:38.022Z,10.25
2019-06-26T13:31:10.441Z,9.78
2019-06-26T13:33:41.125Z,9.93
2019-06-26T13:36:11.883Z,9.13
2019-06-26T13:38:42.602Z,9.18
2019-06-26T13:41:13.355Z,9.15
2019-06-26T13:43:43.932Z,9.13
2019-06-26T13:46:14.494Z,8.60
2019-06-26T13:48:45.195Z,7.62
2019-06-26T13:51:15.777Z,7.78
2019-06-26T13:53:46.558Z,7.80
2019-06-26T13:56:17.297Z,7.75
2019-06-26T13:58:47.837Z,7.85
2019-06-26T14:01:22.987Z,7.65
2019-06-26T14:03:53.005Z,8.13
2019-06-26T14:06:23.629Z,7.92
2019-06-26T14:08:54.093Z,8.40
2019-06-26T14:11:24.666Z,7.75
2019-06-26T14:13:56.643Z,8.73
2019-06-26T14:16:29.808Z,8.23
2019-06-26T14:18:59.238Z,8.75
2019-06-26T14:21:29.724Z,7.95
2019-06-26T14:24:00.066Z,8.30
2019-06-26T14:26:30.467Z,8.35
2019-06-26T14:29:00.901Z,8.18
2019-06-26T14:31:31.434Z,8.60
2019-06-26T14:34:01.804Z,8.03
2019-06-26T14:36:32.331Z,8.50
2019-06-26T14:39:03.229Z,8.80
2019-06-26T14:41:33.714Z,8.70
2019-06-26T14:44:04.083Z,8.58
2019-06-26T14:46:34.542Z,8.25
2019-06-26T14:49:05.061Z,8.93
2019-06-26T14:51:45.443Z,8.80
2019-06-26T14:54:07.762Z,8.88
2019-06-26T14:56:38.250Z,9.15
2019-06-26T14:59:08.653Z,8.88
2019-06-26T15:01:39.483Z,9.30
2019-06-26T15:04:09.948Z,9.48
2019-06-26T15:06:40.380Z,8.98
2019-06-26T15:09:10.728Z,9.18
2019-06-26T15:11:41.348Z,8.83
2019-06-26T15:14:12.035Z,9.18
2019-06-26T15:16:42.506Z,9.85
2019-06-26T15:19:13.089Z,9.78
2019-06-26T15:21:57.537Z,9.85
2019-06-26T15:24:15.757Z,10.13
2019-06-26T15:26:46.223Z,9.28
2019-06-26T15:29:16.663Z,9.78
2019-06-26T15:31:47.170Z,10.20
2019-06-26T15:34:17.590Z,9.55
2019-06-26T15:36:48.070Z,9.08
2019-06-26T15:39:18.437Z,9.58
2019-06-26T15:41:48.883Z,9.50
2019-06-26T15:44:19.291Z,8.85
2019-06-26T15:46:49.876Z,9.65
2019-06-26T15:49:20.405Z,9.05
2019-06-26T15:51:50.814Z,9.63
2019-06-26T15:54:21.304Z,9.25
2019-06-26T15:56:51.848Z,9.50
2019-06-26T15:59:22.246Z,9.98
2019-06-26T16:01:52.763Z,8.75
2019-06-26T16:04:23.196Z,8.83
2019-06-26T16:06:53.663Z,8.48
2019-06-26T16:09:24.149Z,9.38
2019-06-26T16:11:54.617Z,9.40
2019-06-26T16:14:25.232Z,8.98
2019-06-26T16:16:57.216Z,8.90
2019-06-26T16:19:27.673Z,9.35
2019-06-26T16:21:58.139Z,8.68
2019-06-26T16:24:30.216Z,9.23
2019-06-26T16:27:00.964Z,9.18
2019-06-26T16:29:31.394Z,9.18
2019-06-26T16:32:01.846Z,8.90
2019-06-26T16:34:32.384Z,8.70
2019-06-26T16:37:02.871Z,9.03
2019-06-26T16:39:33.364Z,8.30
2019-06-26T16:42:03.841Z,9.90
2019-06-26T16:44:34.544Z,8.90
2019-06-26T16:47:05.030Z,8.43
2019-06-26T16:49:35.600Z,9.23
2019-06-26T16:52:06.179Z,9.43
2019-06-26T16:54:36.719Z,9.08
2019-06-26T16:57:07.224Z,8.88
2019-06-26T16:59:37.652Z,8.83
2019-06-26T17:02:08.252Z,8.95
2019-06-26T17:04:38.728Z,9.23
2019-06-26T17:07:09.193Z,8.98
2019-06-26T17:09:39.574Z,9.10
2019-06-26T17:12:10.044Z,9.25
2019-06-26T17:14:40.583Z,8.90
2019-06-26T17:17:11.150Z,9.10
2019-06-26T17:19:41.592Z,9.03
2019-06-26T17:22:12.155Z,8.85
2019-06-26T17:24:42.593Z,8.78
2019-06-26T17:27:13.163Z,8.43
2019-06-26T17:29:43.735Z,8.35
2019-06-26T17:32:14.236Z,8.65
2019-06-26T17:34:44.694Z,8.23
2019-06-26T17:37:15.263Z,8.10
2019-06-26T17:39:45.877Z,8.25
2019-06-26T17:42:16.972Z,7.85
2019-06-26T17:44:47.473Z,7.92
2019-06-26T17:47:17.906Z,8.70
2019-06-26T17:49:48.419Z,7.45
2019-06-26T17:52:18.898Z,7.90
2019-06-26T17:54:49.359Z,7.97
2019-06-26T17:57:19.801Z,7.00
2019-06-26T17:59:50.351Z,7.40
2019-06-26T18:02:20.817Z,7.50
2019-06-26T18:04:51.374Z,7.62
2019-06-26T18:07:22.065Z,7.47
2019-06-26T18:09:52.391Z,7.22
2019-06-26T18:12:22.794Z,8.15
2019-06-26T18:14:53.156Z,7.85
2019-06-26T18:17:23.590Z,8.65
2019-06-26T18:19:54.089Z,7.83
2019-06-26T18:22:24.648Z,7.85
2019-06-26T18:24:55.016Z,7.62
2019-06-26T18:27:25.424Z,8.10
2019-06-26T18:29:55.870Z,8.18
2019-06-26T18:32:26.286Z,7.75
2019-06-26T18:34:56.776Z,8.65
2019-06-26T18:37:27.444Z,8.03
2019-06-26T18:39:58.157Z,8.28
2019-06-26T18:42:28.780Z,8.75
2019-06-26T18:44:59.256Z,7.97
2019-06-26T18:47:29.651Z,8.38
2019-06-26T18:50:00.123Z,8.83
2019-06-26T18:52:30.664Z,8.55
2019-06-26T18:55:01.321Z,9.08
2019-06-26T18:57:32.165Z,9.35
2019-06-26T19:00:02.587Z,9.45
2019-06-26T19:02:33.076Z,8.73
2019-06-26T19:05:04.654Z,10.00
2019-06-26T19:07:35.126Z,8.83
2019-06-26T19:10:08.067Z,8.60
2019-06-26T19:12:38.631Z,9.05
2019-06-26T19:15:09.091Z,8.30
2019-06-26T19:17:42.448Z,8.65
2019-06-26T19:20:12.280Z,8.73
2019-06-26T19:22:42.767Z,8.75
2019-06-26T19:25:13.152Z,8.75
2019-06-26T19:27:43.616Z,8.45
2019-06-26T19:30:14.030Z,8.60
2019-06-26T19:32:44.522Z,9.38
2019-06-26T19:35:19.182Z,8.85
2019-06-26T19:37:47.021Z,9.23
2019-06-26T19:40:17.596Z,9.20
2019-06-26T19:42:48.074Z,9.15
2019-06-26T19:45:18.535Z,9.68
2019-06-26T19:47:48.925Z,9.68
2019-06-26T19:50:23.168Z,10.03
2019-06-26T19:52:51.534Z,9.73
2019-06-26T19:55:21.898Z,9.73
2019-06-26T19:57:52.442Z,9.38
2019-06-26T20:00:22.940Z,10.08
2019-06-26T20:02:53.691Z,10.28
2019-06-26T20:05:24.066Z,9.18
2019-06-26T20:07:54.541Z,9.38
2019-06-26T20:10:24.976Z,9.60
2019-06-26T20:12:55.371Z,9.50
2019-06-26T20:15:25.818Z,9.68
2019-06-26T20:17:56.911Z,9.83
2019-06-26T20:20:27.415Z,9.35
2019-06-26T20:22:57.830Z,9.05
2019-06-26T20:25:28.306Z,9.43
2019-06-26T20:27:58.756Z,9.88
2019-06-26T20:30:33.147Z,9.63
2019-06-26T20:33:04.071Z,8.90
2019-06-26T20:35:34.495Z,9.73
2019-06-26T20:38:04.967Z,9.03
2019-06-26T20:40:35.447Z,9.23
2019-06-26T20:43:05.929Z,9.28
2019-06-26T20:45:36.306Z,10.30
2019-06-26T20:48:06.784Z,10.45
2019-06-26T20:50:37.161Z,11.03
2019-06-26T20:53:08.079Z,10.88
2019-06-26T20:55:38.455Z,10.45
2019-06-26T20:58:08.912Z,9.88
2019-06-26T21:00:39.552Z,10.90
2019-06-26T21:03:10.146Z,11.25
2019-06-26T21:05:40.782Z,11.08
2019-06-26T21:08:11.186Z,10.68
2019-06-26T21:10:41.686Z,9.78
2019-06-26T21:13:12.238Z,10.58
2019-06-26T21:15:42.752Z,10.53
2019-06-26T21:18:13.183Z,9.35
2019-06-26T21:20:43.686Z,9.48
2019-06-26T21:23:18.834Z,10.10
2019-06-26T21:25:46.152Z,10.05
2019-06-26T21:28:16.689Z,10.00
2019-06-26T21:30:47.227Z,9.58
2019-06-26T21:33:17.869Z,9.63
2019-06-26T21:35:48.254Z,9.95
2019-06-26T21:38:18.774Z,9.83
2019-06-26T21:40:49.151Z,9.48
2019-06-26T21:43:19.605Z,10.38
2019-06-26T21:45:50.048Z,10.05
2019-06-26T21:48:20.548Z,10.40
2019-06-26T21:50:50.931Z,10.05
2019-06-26T21:53:21.307Z,10.80
2019-06-26T21:55:51.704Z,10.43
2019-06-26T21:58:22.095Z,10.10
2019-06-26T22:00:52.706Z,10.63
2019-06-26T22:03:23.287Z,11.30
2019-06-26T22:05:53.761Z,11.25
2019-06-26T22:08:24.160Z,10.25
2019-06-26T22:10:54.606Z,10.48
2019-06-26T22:13:25.201Z,10.70
2019-06-26T22:15:55.651Z,11.08
2019-06-26T22:18:26.255Z,11.00
2019-06-26T22:20:56.616Z,11.75
2019-06-26T22:23:27.035Z,11.15
2019-06-26T22:25:57.544Z,11.00
2019-06-26T22:28:28.060Z,10.70
2019-06-26T22:30:58.419Z,10.30
2019-06-26T22:33:28.937Z,10.88
2019-06-26T22:35:59.316Z,10.58
2019-06-26T22:38:29.809Z,11.65
2019-06-26T22:41:00.517Z,12.03
2019-06-26T22:43:31.143Z,10.82
2019-06-26T22:46:01.607Z,11.57
2019-06-26T22:48:32.110Z,11.73
2019-06-26T22:51:03.726Z,10.63
2019-06-26T22:53:34.147Z,11.53
2019-06-26T22:56:08.064Z,11.45
2019-06-26T22:58:36.862Z,11.97
2019-06-26T23:01:07.244Z,12.10
2019-06-26T23:03:37.813Z,11.75
2019-06-26T23:06:08.313Z,12.30
2019-06-26T23:08:38.805Z,11.85
2019-06-26T23:11:09.563Z,12.03
2019-06-26T23:13:39.975Z,11.88
2019-06-26T23:16:10.515Z,11.70
2019-06-26T23:18:41.096Z,11.55
2019-06-26T23:21:11.496Z,10.98
2019-06-26T23:23:41.970Z,10.68
2019-06-26T23:26:23.510Z,11.60
2019-06-26T23:28:44.568Z,11.93
2019-06-26T23:31:14.928Z,12.20
2019-06-26T23:33:45.455Z,11.80
2019-06-26T23:36:15.897Z,11.75
2019-06-26T23:38:46.383Z,11.78
2019-06-26T23:41:18.111Z,11.45
2019-06-26T23:43:48.764Z,10.43
2019-06-26T23:46:19.229Z,10.78
2019-06-26T23:48:49.767Z,10.93
2019-06-26T23:51:20.266Z,10.48
2019-06-26T23:53:50.794Z,9.15
2019-06-26T23:56:21.351Z,9.48
2019-06-26T23:58:51.860Z,9.05
